createdAt,value
2018-06-23T00:00:40.860Z,0.00
2018-06-23T00:01:40.859Z,0.00
2018-06-23T00:02:40.885Z,0.00
2018-06-23T00:03:40.892Z,0.00
2018-06-23T00:04:40.876Z,0.00
2018-06-23T00:05:40.909Z,0.00
2018-06-23T00:06:40.824Z,0.00
2018-06-23T00:07:40.969Z,0.00
2018-06-23T00:08:40.849Z,0.00
2018-06-23T00:09:40.821Z,0.00
2018-06-23T00:10:40.821Z,0.00
2018-06-23T00:11:40.889Z,0.00
2018-06-23T00:12:40.964Z,0.00
2018-06-23T00:13:40.906Z,0.00
2018-06-23T00:14:40.860Z,0.00
2018-06-23T00:15:40.853Z,0.00
2018-06-23T00:16:40.904Z,0.00
2018-06-23T00:17:40.871Z,0.00
2018-06-23T00:18:40.926Z,0.00
2018-06-23T00:19:40.851Z,0.00
2018-06-23T00:20:40.849Z,0.00
2018-06-23T00:21:40.846Z,0.00
2018-06-23T00:22:40.848Z,0.00
2018-06-23T00:23:40.884Z,0.00
2018-06-23T00:24:40.895Z,0.00
2018-06-23T00:25:40.865Z,0.00
2018-06-23T00:26:40.920Z,0.00
2018-06-23T00:27:40.861Z,0.00
2018-06-23T00:28:40.882Z,0.00
2018-06-23T00:29:40.925Z,0.00
2018-06-23T00:30:40.882Z,0.00
2018-06-23T00:31:40.910Z,0.00
2018-06-23T00:32:40.915Z,0.00
2018-06-23T00:33:40.923Z,0.00
2018-06-23T00:34:40.960Z,0.00
2018-06-23T00:35:40.953Z,0.00
2018-06-23T00:36:40.912Z,0.00
2018-06-23T00:37:40.891Z,0.00
2018-06-23T00:38:40.984Z,0.00
2018-06-23T00:39:40.920Z,0.00
2018-06-23T00:40:40.979Z,0.00
2018-06-23T00:41:40.953Z,0.00
2018-06-23T00:42:40.953Z,0.00
2018-06-23T00:43:40.897Z,0.00
2018-06-23T00:44:40.909Z,0.00
2018-06-23T00:45:40.970Z,0.00
2018-06-23T00:46:40.949Z,0.00
2018-06-23T00:47:40.927Z,0.00
2018-06-23T00:48:40.939Z,0.00
2018-06-23T00:49:40.941Z,0.00
2018-06-23T00:50:40.964Z,0.00
2018-06-23T00:51:40.946Z,0.00
2018-06-23T00:52:40.957Z,0.00
2018-06-23T00:53:40.956Z,0.00
2018-06-23T00:54:40.925Z,0.00
2018-06-23T00:55:40.966Z,0.00
2018-06-23T00:56:40.966Z,0.00
2018-06-23T00:57:40.964Z,0.00
2018-06-23T00:58:40.972Z,0.00
2018-06-23T00:59:40.967Z,0.00
2018-06-23T01:00:41.003Z,0.00
2018-06-23T01:01:40.974Z,0.00
2018-06-23T01:02:40.945Z,0.00
2018-06-23T01:03:40.939Z,0.00
2018-06-23T01:04:40.946Z,0.00
2018-06-23T01:05:41.000Z,0.00
2018-06-23T01:06:40.962Z,0.00
2018-06-23T01:07:40.998Z,0.00
2018-06-23T01:08:41.012Z,0.00
2018-06-23T01:09:41.024Z,0.00
2018-06-23T01:10:40.987Z,0.00
2018-06-23T01:11:41.006Z,0.00
2018-06-23T01:12:40.962Z,0.00
2018-06-23T01:13:40.989Z,0.00
2018-06-23T01:14:40.982Z,0.00
2018-06-23T01:15:41.024Z,0.00
2018-06-23T01:16:40.993Z,0.00
2018-06-23T01:17:41.034Z,0.00
2018-06-23T01:18:41.090Z,0.00
2018-06-23T01:19:40.979Z,0.00
2018-06-23T01:20:41.033Z,0.00
2018-06-23T01:21:40.988Z,0.00
2018-06-23T01:22:47.774Z,0.00
2018-06-23T01:23:41.022Z,0.00
2018-06-23T01:24:41.019Z,0.00
2018-06-23T01:25:41.017Z,0.00
2018-06-23T01:26:41.004Z,0.00
2018-06-23T01:27:41.028Z,0.00
2018-06-23T01:28:40.998Z,0.00
2018-06-23T01:29:41.068Z,0.00
2018-06-23T01:30:41.019Z,0.00
2018-06-23T01:31:41.083Z,0.00
2018-06-23T01:32:41.081Z,0.00
2018-06-23T01:33:41.072Z,0.00
2018-06-23T01:34:41.089Z,0.00
2018-06-23T01:35:41.059Z,0.00
2018-06-23T01:36:41.065Z,0.00
2018-06-23T01:37:41.010Z,0.00
2018-06-23T01:38:41.018Z,0.00
2018-06-23T01:39:41.061Z,0.00
2018-06-23T01:40:41.019Z,0.00
2018-06-23T01:41:41.022Z,0.00
2018-06-23T01:42:41.046Z,0.00
2018-06-23T01:43:41.067Z,0.00
2018-06-23T01:44:41.077Z,0.00
2018-06-23T01:45:41.077Z,0.00
2018-06-23T01:46:41.033Z,0.00
2018-06-23T01:47:41.030Z,0.00
2018-06-23T01:48:41.039Z,0.00
2018-06-23T01:49:41.037Z,0.00
2018-06-23T01:50:41.079Z,0.00
2018-06-23T01:51:41.077Z,0.00
2018-06-23T01:52:41.065Z,0.00
2018-06-23T01:53:41.050Z,0.00
2018-06-23T01:54:41.051Z,0.00
2018-06-23T01:55:41.056Z,0.00
2018-06-23T01:56:41.053Z,0.00
2018-06-23T01:57:41.140Z,0.00
2018-06-23T01:58:41.087Z,0.00
2018-06-23T01:59:41.054Z,0.00
2018-06-23T02:00:41.096Z,0.00
2018-06-23T02:01:41.062Z,0.00
2018-06-23T02:02:41.062Z,0.00
2018-06-23T02:03:41.079Z,0.00
2018-06-23T02:04:41.072Z,0.00
2018-06-23T02:05:41.067Z,0.00
2018-06-23T02:06:41.112Z,0.00
2018-06-23T02:07:41.101Z,0.00
2018-06-23T02:08:41.074Z,0.00
2018-06-23T02:09:41.096Z,0.00
2018-06-23T02:10:41.076Z,0.00
2018-06-23T02:11:41.094Z,0.00
2018-06-23T02:12:41.089Z,0.00
2018-06-23T02:13:41.097Z,0.00
2018-06-23T02:14:41.134Z,0.00
2018-06-23T02:15:41.096Z,0.00
2018-06-23T02:16:41.090Z,0.00
2018-06-23T02:17:41.110Z,0.00
2018-06-23T02:18:41.125Z,0.00
2018-06-23T02:19:41.144Z,0.00
2018-06-23T02:20:41.155Z,0.00
2018-06-23T02:21:41.103Z,0.00
2018-06-23T02:22:41.134Z,0.00
2018-06-23T02:23:41.105Z,0.00
2018-06-23T02:24:41.128Z,0.00
2018-06-23T02:25:41.146Z,0.00
2018-06-23T02:26:41.182Z,0.00
2018-06-23T02:27:41.120Z,0.00
2018-06-23T02:28:41.149Z,0.00
2018-06-23T02:29:41.113Z,0.00
2018-06-23T02:30:41.163Z,0.00
2018-06-23T02:31:41.119Z,0.00
2018-06-23T02:32:41.157Z,0.00
2018-06-23T02:33:41.146Z,0.00
2018-06-23T02:34:41.119Z,0.00
2018-06-23T02:35:41.165Z,0.00
2018-06-23T02:36:41.124Z,0.00
2018-06-23T02:37:41.177Z,0.00
2018-06-23T02:38:41.128Z,0.00
2018-06-23T02:39:41.157Z,0.00
2018-06-23T02:40:41.166Z,0.00
2018-06-23T02:41:41.180Z,0.00
2018-06-23T02:42:41.157Z,0.00
2018-06-23T02:43:41.141Z,0.00
2018-06-23T02:44:41.174Z,0.00
2018-06-23T02:45:41.175Z,0.00
2018-06-23T02:46:41.159Z,4.00
2018-06-23T02:47:41.148Z,4.00
2018-06-23T02:48:41.151Z,0.00
2018-06-23T02:49:41.184Z,0.00
2018-06-23T02:50:41.147Z,4.00
2018-06-23T02:51:41.170Z,4.00
2018-06-23T02:52:41.164Z,0.00
2018-06-23T02:53:41.156Z,4.00
2018-06-23T02:54:41.208Z,0.00
2018-06-23T02:55:41.214Z,4.00
2018-06-23T02:56:41.161Z,4.00
2018-06-23T02:57:41.180Z,4.00
2018-06-23T02:58:41.176Z,4.00
2018-06-23T02:59:41.168Z,8.00
2018-06-23T03:00:41.166Z,8.00
2018-06-23T03:01:41.231Z,8.00
2018-06-23T03:02:41.179Z,8.00
2018-06-23T03:03:41.231Z,8.00
2018-06-23T03:04:41.173Z,12.00
2018-06-23T03:05:41.179Z,12.00
2018-06-23T03:06:41.217Z,16.00
2018-06-23T03:07:41.216Z,16.00
2018-06-23T03:08:41.219Z,20.00
2018-06-23T03:09:41.228Z,20.00
2018-06-23T03:10:41.188Z,20.00
2018-06-23T03:11:41.184Z,20.00
2018-06-23T03:12:41.200Z,24.00
2018-06-23T03:13:41.187Z,24.00
2018-06-23T03:14:41.192Z,28.00
2018-06-23T03:15:41.190Z,32.00
2018-06-23T03:16:41.193Z,32.00
2018-06-23T03:17:41.243Z,40.00
2018-06-23T03:18:41.197Z,40.00
2018-06-23T03:19:41.251Z,44.00
2018-06-23T03:20:41.208Z,44.00
2018-06-23T03:21:41.268Z,48.00
2018-06-23T03:22:41.288Z,52.00
2018-06-23T03:23:41.243Z,56.00
2018-06-23T03:24:42.837Z,60.00
2018-06-23T03:25:41.216Z,68.00
2018-06-23T03:26:41.252Z,72.00
2018-06-23T03:27:41.216Z,76.00
2018-06-23T03:28:41.262Z,80.00
2018-06-23T03:29:41.240Z,84.00
2018-06-23T03:30:41.301Z,92.00
2018-06-23T03:31:41.285Z,100.00
2018-06-23T03:32:41.224Z,100.00
2018-06-23T03:33:41.226Z,108.00
2018-06-23T03:34:41.308Z,116.00
2018-06-23T03:35:41.291Z,124.00
2018-06-23T03:36:41.226Z,132.00
2018-06-23T03:37:41.273Z,136.00
2018-06-23T03:38:41.291Z,144.00
2018-06-23T03:39:41.244Z,152.00
2018-06-23T03:40:41.238Z,160.00
2018-06-23T03:41:41.273Z,164.00
2018-06-23T03:42:41.285Z,172.00
2018-06-23T03:43:41.353Z,180.00
2018-06-23T03:44:41.278Z,188.00
2018-06-23T03:45:41.301Z,196.00
2018-06-23T03:46:41.246Z,204.00
2018-06-23T03:47:41.277Z,208.00
2018-06-23T03:48:41.322Z,216.00
2018-06-23T03:49:41.290Z,224.00
2018-06-23T03:50:41.297Z,228.00
2018-06-23T03:51:41.284Z,236.00
2018-06-23T03:52:41.263Z,244.00
2018-06-23T03:53:41.255Z,256.00
2018-06-23T03:54:41.305Z,260.00
2018-06-23T03:55:41.261Z,268.00
2018-06-23T03:56:41.283Z,272.00
2018-06-23T03:57:41.297Z,272.00
2018-06-23T03:58:41.288Z,276.00
2018-06-23T03:59:41.337Z,284.00
2018-06-23T04:00:41.279Z,296.00
2018-06-23T04:01:41.271Z,308.00
2018-06-23T04:02:41.319Z,320.00
2018-06-23T04:03:41.276Z,336.00
2018-06-23T04:04:41.279Z,344.00
2018-06-23T04:05:41.350Z,348.00
2018-06-23T04:06:41.292Z,348.00
2018-06-23T04:07:41.282Z,348.00
2018-06-23T04:08:41.327Z,332.00
2018-06-23T04:09:41.292Z,312.00
2018-06-23T04:10:41.285Z,300.00
2018-06-23T04:11:41.287Z,288.00
2018-06-23T04:12:41.332Z,288.00
2018-06-23T04:13:41.290Z,288.00
2018-06-23T04:14:41.335Z,280.00
2018-06-23T04:15:41.362Z,292.00
2018-06-23T04:16:41.318Z,304.00
2018-06-23T04:17:41.340Z,316.00
2018-06-23T04:18:41.331Z,340.00
2018-06-23T04:19:41.353Z,368.00
2018-06-23T04:20:41.320Z,392.00
2018-06-23T04:21:41.303Z,420.00
2018-06-23T04:22:41.346Z,444.00
2018-06-23T04:23:41.312Z,460.00
2018-06-23T04:24:41.324Z,468.00
2018-06-23T04:25:41.314Z,460.00
2018-06-23T04:26:41.320Z,452.00
2018-06-23T04:27:41.344Z,424.00
2018-06-23T04:28:41.376Z,392.00
2018-06-23T04:29:41.374Z,372.00
2018-06-23T04:30:41.327Z,348.00
2018-06-23T04:31:41.334Z,340.00
2018-06-23T04:32:41.444Z,332.00
2018-06-23T04:33:41.368Z,332.00
2018-06-23T04:34:41.377Z,328.00
2018-06-23T04:35:41.406Z,324.00
2018-06-23T04:36:41.384Z,324.00
2018-06-23T04:37:41.338Z,316.00
2018-06-23T04:38:41.382Z,320.00
2018-06-23T04:39:41.376Z,320.00
2018-06-23T04:40:41.372Z,336.00
2018-06-23T04:41:41.389Z,356.00
2018-06-23T04:42:41.407Z,384.00
2018-06-23T04:43:41.361Z,408.00
2018-06-23T04:44:41.402Z,424.00
2018-06-23T04:45:41.429Z,444.00
2018-06-23T04:46:41.356Z,424.00
2018-06-23T04:47:41.392Z,408.00
2018-06-23T04:48:41.420Z,404.00
2018-06-23T04:49:41.389Z,408.00
2018-06-23T04:50:41.401Z,408.00
2018-06-23T04:51:41.401Z,420.00
2018-06-23T04:52:41.361Z,432.00
2018-06-23T04:53:41.372Z,456.00
2018-06-23T04:54:41.426Z,496.00
2018-06-23T04:55:41.390Z,532.00
2018-06-23T04:56:41.373Z,560.00
2018-06-23T04:57:41.398Z,580.00
2018-06-23T04:58:41.372Z,616.00
2018-06-23T04:59:41.379Z,668.00
2018-06-23T05:00:41.383Z,708.00
2018-06-23T05:01:41.385Z,704.00
2018-06-23T05:02:41.450Z,684.00
2018-06-23T05:03:41.457Z,640.00
2018-06-23T05:04:41.442Z,552.00
2018-06-23T05:05:41.403Z,492.00
2018-06-23T05:06:41.429Z,488.00
2018-06-23T05:07:41.397Z,496.00
2018-06-23T05:08:41.397Z,520.00
2018-06-23T05:09:41.397Z,548.00
2018-06-23T05:10:41.410Z,588.00
2018-06-23T05:11:41.398Z,624.00
2018-06-23T05:12:41.469Z,624.00
2018-06-23T05:13:41.428Z,640.00
2018-06-23T05:14:41.408Z,664.00
2018-06-23T05:15:41.479Z,696.00
2018-06-23T05:16:41.461Z,728.00
2018-06-23T05:17:41.475Z,796.00
2018-06-23T05:18:41.440Z,848.00
2018-06-23T05:19:41.428Z,856.00
2018-06-23T05:20:41.448Z,848.00
2018-06-23T05:21:41.435Z,824.00
2018-06-23T05:22:41.436Z,820.00
2018-06-23T05:23:41.428Z,820.00
2018-06-23T05:24:41.481Z,824.00
2018-06-23T05:25:41.449Z,848.00
2018-06-23T05:26:41.435Z,872.00
2018-06-23T05:27:41.492Z,896.00
2018-06-23T05:28:41.479Z,936.00
2018-06-23T05:29:41.437Z,980.00
2018-06-23T05:30:41.489Z,1016.00
2018-06-23T05:31:41.528Z,1040.00
2018-06-23T05:32:41.447Z,1060.00
2018-06-23T05:33:41.452Z,1076.00
2018-06-23T05:34:41.478Z,1088.00
2018-06-23T05:35:41.516Z,1100.00
2018-06-23T05:36:41.458Z,1100.00
2018-06-23T05:37:41.541Z,1100.00
2018-06-23T05:38:41.495Z,1096.00
2018-06-23T05:39:41.517Z,1108.00
2018-06-23T05:40:41.463Z,1128.00
2018-06-23T05:41:41.481Z,1152.00
2018-06-23T05:42:41.505Z,1168.00
2018-06-23T05:43:41.501Z,1176.00
2018-06-23T05:44:41.504Z,1176.00
2018-06-23T05:45:41.481Z,1180.00
2018-06-23T05:46:41.488Z,1200.00
2018-06-23T05:47:41.490Z,1224.00
2018-06-23T05:48:41.531Z,1244.00
2018-06-23T05:49:41.488Z,1252.00
2018-06-23T05:50:41.527Z,1268.00
2018-06-23T05:51:41.529Z,1296.00
2018-06-23T05:52:41.567Z,1324.00
2018-06-23T05:53:41.508Z,1340.00
2018-06-23T05:54:41.515Z,1332.00
2018-06-23T05:55:41.509Z,1296.00
2018-06-23T05:56:41.580Z,1268.00
2018-06-23T05:57:41.519Z,1252.00
2018-06-23T05:58:41.512Z,1256.00
2018-06-23T05:59:41.591Z,1268.00
2018-06-23T06:00:41.790Z,1264.00
2018-06-23T06:01:41.545Z,1256.00
2018-06-23T06:02:41.586Z,1228.00
2018-06-23T06:03:41.603Z,1196.00
2018-06-23T06:04:41.599Z,1164.00
2018-06-23T06:05:41.533Z,1144.00
2018-06-23T06:06:41.579Z,1124.00
2018-06-23T06:07:41.862Z,1108.00
2018-06-23T06:08:41.587Z,1104.00
2018-06-23T06:09:41.588Z,1088.00
2018-06-23T06:10:41.549Z,1040.00
2018-06-23T06:11:41.645Z,968.00
2018-06-23T06:12:41.588Z,960.00
2018-06-23T06:13:41.561Z,948.00
2018-06-23T06:14:41.787Z,944.00
2018-06-23T06:15:41.570Z,936.00
2018-06-23T06:16:41.678Z,968.00
2018-06-23T06:17:41.577Z,984.00
2018-06-23T06:18:41.689Z,1004.00
2018-06-23T06:19:41.724Z,1016.00
2018-06-23T06:20:41.703Z,1020.00
2018-06-23T06:21:41.614Z,1024.00
2018-06-23T06:22:41.620Z,1028.00
2018-06-23T06:23:41.633Z,1024.00
2018-06-23T06:24:41.612Z,1024.00
2018-06-23T06:25:41.615Z,1032.00
2018-06-23T06:26:41.608Z,1032.00
2018-06-23T06:27:41.622Z,1036.00
2018-06-23T06:28:41.920Z,1036.00
2018-06-23T06:29:41.683Z,1044.00
2018-06-23T06:30:41.654Z,1048.00
2018-06-23T06:31:41.656Z,1060.00
2018-06-23T06:32:41.622Z,1056.00
2018-06-23T06:33:41.628Z,1052.00
2018-06-23T06:34:41.761Z,1068.00
2018-06-23T06:35:41.682Z,1092.00
2018-06-23T06:36:41.679Z,1116.00
2018-06-23T06:37:41.704Z,1136.00
2018-06-23T06:38:41.699Z,1152.00
2018-06-23T06:39:41.700Z,1176.00
2018-06-23T06:40:41.657Z,1180.00
2018-06-23T06:41:41.704Z,1172.00
2018-06-23T06:42:41.684Z,1164.00
2018-06-23T06:43:41.686Z,1144.00
2018-06-23T06:44:41.779Z,1132.00
2018-06-23T06:45:41.738Z,1116.00
2018-06-23T06:46:41.677Z,1100.00
2018-06-23T06:47:41.678Z,1084.00
2018-06-23T06:48:41.717Z,1080.00
2018-06-23T06:49:41.679Z,1076.00
2018-06-23T06:50:41.694Z,1088.00
2018-06-23T06:51:41.689Z,1104.00
2018-06-23T06:52:41.738Z,1096.00
2018-06-23T06:53:41.743Z,1072.00
2018-06-23T06:54:41.729Z,1076.00
2018-06-23T06:55:41.784Z,1084.00
2018-06-23T06:56:41.711Z,1084.00
2018-06-23T06:57:41.758Z,1088.00
2018-06-23T06:58:41.730Z,1108.00
2018-06-23T06:59:41.721Z,1116.00
2018-06-23T07:00:41.725Z,1124.00
2018-06-23T07:01:41.732Z,1132.00
2018-06-23T07:02:41.770Z,1132.00
2018-06-23T07:03:41.742Z,1140.00
2018-06-23T07:04:41.744Z,1164.00
2018-06-23T07:05:41.789Z,1180.00
2018-06-23T07:06:41.771Z,1200.00
2018-06-23T07:07:41.766Z,1224.00
2018-06-23T07:08:41.874Z,1244.00
2018-06-23T07:09:41.762Z,1280.00
2018-06-23T07:10:41.770Z,1312.00
2018-06-23T07:11:41.779Z,1340.00
2018-06-23T07:12:41.777Z,1380.00
2018-06-23T07:13:41.778Z,1416.00
2018-06-23T07:14:41.781Z,1416.00
2018-06-23T07:15:41.792Z,1424.00
2018-06-23T07:16:41.792Z,1428.00
2018-06-23T07:17:41.835Z,1420.00
2018-06-23T07:18:41.797Z,1432.00
2018-06-23T07:19:41.887Z,1452.00
2018-06-23T07:20:41.808Z,1480.00
2018-06-23T07:21:41.849Z,1564.00
2018-06-23T07:22:41.851Z,1624.00
2018-06-23T07:23:41.962Z,1616.00
2018-06-23T07:24:41.837Z,1504.00
2018-06-23T07:25:41.873Z,1592.00
2018-06-23T07:26:41.957Z,1588.00
2018-06-23T07:27:41.841Z,1572.00
2018-06-23T07:28:42.066Z,1560.00
2018-06-23T07:29:42.213Z,1560.00
2018-06-23T07:30:41.991Z,1544.00
2018-06-23T07:31:42.402Z,1560.00
2018-06-23T07:32:41.872Z,1628.00
2018-06-23T07:33:41.953Z,1680.00
2018-06-23T07:34:41.941Z,1648.00
2018-06-23T07:35:41.920Z,1716.00
2018-06-23T07:36:42.030Z,1780.00
2018-06-23T07:37:41.921Z,1476.00
2018-06-23T07:38:41.892Z,1832.00
2018-06-23T07:39:42.080Z,1744.00
2018-06-23T07:40:41.945Z,1780.00
2018-06-23T07:41:41.969Z,1332.00
2018-06-23T07:42:41.969Z,1628.00
2018-06-23T07:43:42.001Z,1444.00
2018-06-23T07:44:41.984Z,1184.00
2018-06-23T07:45:41.932Z,1512.00
2018-06-23T07:46:41.983Z,1584.00
2018-06-23T07:47:41.958Z,1640.00
2018-06-23T07:48:41.963Z,1728.00
2018-06-23T07:49:41.942Z,1760.00
2018-06-23T07:50:42.005Z,1840.00
2018-06-23T07:51:41.942Z,1828.00
2018-06-23T07:52:41.946Z,1784.00
2018-06-23T07:53:42.043Z,1836.00
2018-06-23T07:54:41.955Z,1880.00
2018-06-23T07:55:42.082Z,1960.00
2018-06-23T07:56:41.966Z,2032.00
2018-06-23T07:57:42.139Z,2080.00
2018-06-23T07:58:42.176Z,2132.00
2018-06-23T07:59:42.142Z,2128.00
2018-06-23T08:00:42.054Z,1984.00
2018-06-23T08:01:42.262Z,1992.00
2018-06-23T08:02:42.031Z,2016.00
2018-06-23T08:03:42.129Z,1900.00
2018-06-23T08:04:42.082Z,1496.00
2018-06-23T08:05:42.051Z,1932.00
2018-06-23T08:06:42.090Z,1376.00
2018-06-23T08:07:42.071Z,1500.00
2018-06-23T08:08:42.115Z,1392.00
2018-06-23T08:09:42.260Z,1432.00
2018-06-23T08:10:42.127Z,1460.00
2018-06-23T08:11:42.202Z,2104.00
2018-06-23T08:12:42.096Z,2148.00
2018-06-23T08:13:42.284Z,2236.00
2018-06-23T08:14:42.180Z,2056.00
2018-06-23T08:15:42.107Z,1904.00
2018-06-23T08:16:42.270Z,1460.00
2018-06-23T08:17:42.196Z,1356.00
2018-06-23T08:18:42.078Z,1880.00
2018-06-23T08:19:42.088Z,1992.00
2018-06-23T08:20:42.181Z,2176.00
2018-06-23T08:21:42.220Z,2332.00
2018-06-23T08:22:42.163Z,2324.00
2018-06-23T08:23:42.101Z,2420.00
2018-06-23T08:24:42.168Z,2400.00
2018-06-23T08:25:42.201Z,2360.00
2018-06-23T08:26:42.436Z,2200.00
2018-06-23T08:27:42.156Z,1932.00
2018-06-23T08:28:42.250Z,1264.00
2018-06-23T08:29:42.228Z,1080.00
2018-06-23T08:30:42.215Z,976.00
2018-06-23T08:31:42.215Z,924.00
2018-06-23T08:32:42.292Z,912.00
2018-06-23T08:33:42.178Z,924.00
2018-06-23T08:34:42.200Z,924.00
2018-06-23T08:35:42.211Z,1620.00
2018-06-23T08:36:42.189Z,1332.00
2018-06-23T08:37:42.284Z,1144.00
2018-06-23T08:38:42.183Z,1660.00
2018-06-23T08:39:42.189Z,1212.00
2018-06-23T08:40:42.251Z,1204.00
2018-06-23T08:41:42.281Z,1912.00
2018-06-23T08:42:42.399Z,2064.00
2018-06-23T08:43:43.187Z,2216.00
2018-06-23T08:44:42.308Z,2280.00
2018-06-23T08:45:42.256Z,2196.00
2018-06-23T08:46:42.661Z,1972.00
2018-06-23T08:47:42.696Z,1836.00
2018-06-23T08:48:43.195Z,1792.00
2018-06-23T08:49:42.285Z,1760.00
2018-06-23T08:50:42.316Z,1804.00
2018-06-23T08:51:42.310Z,1944.00
2018-06-23T08:52:42.809Z,2136.00
2018-06-23T08:53:42.320Z,2188.00
2018-06-23T08:54:42.423Z,2272.00
2018-06-23T08:55:42.957Z,2256.00
2018-06-23T08:56:42.351Z,1856.00
2018-06-23T08:57:42.288Z,2124.00
2018-06-23T08:58:42.577Z,2100.00
2018-06-23T08:59:42.562Z,2052.00
2018-06-23T09:00:42.384Z,2048.00
2018-06-23T09:01:42.482Z,2116.00
2018-06-23T09:02:42.489Z,2228.00
2018-06-23T09:03:42.846Z,2312.00
2018-06-23T09:04:42.408Z,2360.00
2018-06-23T09:05:42.395Z,2576.00
2018-06-23T09:06:42.767Z,2456.00
2018-06-23T09:07:42.500Z,2636.00
2018-06-23T09:08:42.407Z,2544.00
2018-06-23T09:09:42.416Z,2432.00
2018-06-23T09:10:42.481Z,1780.00
2018-06-23T09:11:42.367Z,2428.00
2018-06-23T09:12:42.735Z,1916.00
2018-06-23T09:13:42.477Z,2256.00
2018-06-23T09:14:42.544Z,2028.00
2018-06-23T09:15:42.443Z,1552.00
2018-06-23T09:16:42.496Z,1488.00
2018-06-23T09:17:42.475Z,1516.00
2018-06-23T09:18:42.415Z,1904.00
2018-06-23T09:19:42.547Z,1568.00
2018-06-23T09:20:42.453Z,2412.00
2018-06-23T09:21:42.437Z,2184.00
2018-06-23T09:22:42.543Z,1532.00
2018-06-23T09:23:42.499Z,1592.00
2018-06-23T09:24:42.460Z,1564.00
2018-06-23T09:25:42.496Z,1468.00
2018-06-23T09:26:42.463Z,1424.00
2018-06-23T09:27:42.713Z,1524.00
2018-06-23T09:28:42.607Z,1624.00
2018-06-23T09:29:42.963Z,1736.00
2018-06-23T09:30:42.530Z,1788.00
2018-06-23T09:31:42.495Z,1792.00
2018-06-23T09:32:42.501Z,1748.00
2018-06-23T09:33:42.543Z,1720.00
2018-06-23T09:34:42.517Z,1736.00
2018-06-23T09:35:42.686Z,1716.00
2018-06-23T09:36:42.624Z,1636.00
2018-06-23T09:37:42.531Z,1608.00
2018-06-23T09:38:42.548Z,1688.00
2018-06-23T09:39:42.660Z,1748.00
2018-06-23T09:40:42.626Z,1776.00
2018-06-23T09:41:42.821Z,1784.00
2018-06-23T09:42:42.664Z,1816.00
2018-06-23T09:43:42.827Z,1928.00
2018-06-23T09:44:42.588Z,3136.00
2018-06-23T09:45:42.580Z,3064.00
2018-06-23T09:46:42.642Z,1928.00
2018-06-23T09:47:42.636Z,1848.00
2018-06-23T09:48:42.781Z,1776.00
2018-06-23T09:49:42.721Z,1732.00
2018-06-23T09:50:42.611Z,1704.00
2018-06-23T09:51:42.776Z,1860.00
2018-06-23T09:52:42.632Z,1472.00
2018-06-23T09:53:42.625Z,1376.00
2018-06-23T09:54:42.622Z,1328.00
2018-06-23T09:55:42.769Z,1384.00
2018-06-23T09:56:42.650Z,1544.00
2018-06-23T09:57:42.648Z,1764.00
2018-06-23T09:58:42.741Z,1816.00
2018-06-23T09:59:42.731Z,1712.00
2018-06-23T10:00:42.853Z,1640.00
2018-06-23T10:01:42.671Z,1624.00
2018-06-23T10:02:42.713Z,1800.00
2018-06-23T10:03:42.939Z,1636.00
2018-06-23T10:04:42.961Z,1680.00
2018-06-23T10:05:42.796Z,2184.00
2018-06-23T10:06:42.702Z,2680.00
2018-06-23T10:07:42.723Z,2724.00
2018-06-23T10:08:42.762Z,2696.00
2018-06-23T10:09:43.408Z,2732.00
2018-06-23T10:10:42.729Z,2800.00
2018-06-23T10:11:43.273Z,2868.00
2018-06-23T10:12:42.973Z,3008.00
2018-06-23T10:13:42.766Z,3160.00
2018-06-23T10:14:42.766Z,2992.00
2018-06-23T10:15:43.035Z,1820.00
2018-06-23T10:16:42.826Z,1724.00
2018-06-23T10:17:42.804Z,1580.00
2018-06-23T10:18:43.000Z,1500.00
2018-06-23T10:19:42.977Z,1504.00
2018-06-23T10:20:42.775Z,1576.00
2018-06-23T10:21:42.837Z,1692.00
2018-06-23T10:22:42.900Z,2208.00
2018-06-23T10:23:43.204Z,1792.00
2018-06-23T10:24:42.837Z,1776.00
2018-06-23T10:25:42.827Z,1756.00
2018-06-23T10:26:43.037Z,1696.00
2018-06-23T10:27:42.816Z,1624.00
2018-06-23T10:28:42.832Z,2104.00
2018-06-23T10:29:42.830Z,1900.00
2018-06-23T10:30:42.952Z,1696.00
2018-06-23T10:31:42.908Z,3164.00
2018-06-23T10:32:42.849Z,3256.00
2018-06-23T10:33:42.863Z,3360.00
2018-06-23T10:34:42.905Z,3504.00
2018-06-23T10:35:42.957Z,3524.00
2018-06-23T10:36:42.902Z,3520.00
2018-06-23T10:37:42.979Z,3504.00
2018-06-23T10:38:43.007Z,3564.00
2018-06-23T10:39:42.972Z,2316.00
2018-06-23T10:40:43.255Z,2100.00
2018-06-23T10:41:43.047Z,2112.00
2018-06-23T10:42:43.115Z,2152.00
2018-06-23T10:43:43.031Z,2168.00
2018-06-23T10:44:42.988Z,2284.00
2018-06-23T10:45:42.928Z,2264.00
2018-06-23T10:46:42.972Z,2180.00
2018-06-23T10:47:43.007Z,2308.00
2018-06-23T10:48:42.970Z,2536.00
2018-06-23T10:49:43.055Z,3524.00
2018-06-23T10:50:43.098Z,3660.00
2018-06-23T10:51:42.974Z,1948.00
2018-06-23T10:52:43.114Z,1864.00
2018-06-23T10:53:43.040Z,1804.00
2018-06-23T10:54:43.104Z,1752.00
2018-06-23T10:55:43.052Z,1712.00
2018-06-23T10:56:43.032Z,1884.00
2018-06-23T10:57:43.172Z,2048.00
2018-06-23T10:58:43.015Z,1976.00
2018-06-23T10:59:43.068Z,1740.00
2018-06-23T11:00:43.186Z,1680.00
2018-06-23T11:01:43.056Z,2080.00
2018-06-23T11:02:43.133Z,2688.00
2018-06-23T11:03:43.105Z,3520.00
2018-06-23T11:04:43.223Z,1996.00
2018-06-23T11:05:43.076Z,1584.00
2018-06-23T11:06:43.210Z,1624.00
2018-06-23T11:07:43.084Z,1724.00
2018-06-23T11:08:43.476Z,1868.00
2018-06-23T11:09:43.174Z,1948.00
2018-06-23T11:10:43.285Z,1984.00
2018-06-23T11:11:43.172Z,3696.00
2018-06-23T11:12:43.184Z,3684.00
2018-06-23T11:13:43.186Z,3684.00
2018-06-23T11:14:43.259Z,2784.00
2018-06-23T11:15:43.240Z,3356.00
2018-06-23T11:16:43.194Z,2960.00
2018-06-23T11:17:43.174Z,3364.00
2018-06-23T11:18:43.146Z,3276.00
2018-06-23T11:19:43.158Z,2168.00
2018-06-23T11:20:43.205Z,1424.00
2018-06-23T11:21:43.272Z,3136.00
2018-06-23T11:22:43.221Z,2476.00
2018-06-23T11:23:43.256Z,1204.00
2018-06-23T11:24:43.192Z,1172.00
2018-06-23T11:25:43.385Z,2692.00
2018-06-23T11:26:43.244Z,2972.00
2018-06-23T11:27:43.206Z,3028.00
2018-06-23T11:28:43.385Z,2904.00
2018-06-23T11:29:43.252Z,2936.00
2018-06-23T11:30:43.326Z,1864.00
2018-06-23T11:31:43.243Z,2948.00
2018-06-23T11:32:43.534Z,2944.00
2018-06-23T11:33:43.375Z,2956.00
2018-06-23T11:34:43.304Z,2968.00
2018-06-23T11:35:43.403Z,3028.00
2018-06-23T11:36:43.262Z,3080.00
2018-06-23T11:37:43.271Z,3156.00
2018-06-23T11:38:43.460Z,3152.00
2018-06-23T11:39:43.387Z,2244.00
2018-06-23T11:40:43.441Z,1440.00
2018-06-23T11:41:43.382Z,1656.00
2018-06-23T11:42:43.404Z,2220.00
2018-06-23T11:43:43.361Z,1608.00
2018-06-23T11:44:43.401Z,1652.00
2018-06-23T11:45:43.543Z,1680.00
2018-06-23T11:46:43.458Z,1600.00
2018-06-23T11:47:43.401Z,3656.00
2018-06-23T11:48:43.425Z,3348.00
2018-06-23T11:49:43.372Z,3268.00
2018-06-23T11:50:43.364Z,3304.00
2018-06-23T11:51:43.410Z,3204.00
2018-06-23T11:52:43.374Z,3284.00
2018-06-23T11:53:43.406Z,3304.00
2018-06-23T11:54:43.410Z,3316.00
2018-06-23T11:55:43.404Z,3304.00
2018-06-23T11:56:43.612Z,3256.00
2018-06-23T11:57:43.461Z,3216.00
2018-06-23T11:58:43.438Z,3244.00
2018-06-23T11:59:43.453Z,3244.00
2018-06-23T12:00:43.475Z,2944.00
2018-06-23T12:01:43.782Z,2944.00
2018-06-23T12:02:43.542Z,2992.00
2018-06-23T12:03:43.455Z,3036.00
2018-06-23T12:04:43.504Z,3172.00
2018-06-23T12:05:43.598Z,3120.00
2018-06-23T12:06:43.523Z,3088.00
2018-06-23T12:07:43.510Z,3072.00
2018-06-23T12:08:43.534Z,3068.00
2018-06-23T12:09:43.527Z,3084.00
2018-06-23T12:10:43.532Z,3056.00
2018-06-23T12:11:43.594Z,2964.00
2018-06-23T12:12:43.606Z,3008.00
2018-06-23T12:13:43.723Z,3016.00
2018-06-23T12:14:43.592Z,2984.00
2018-06-23T12:15:43.545Z,3020.00
2018-06-23T12:16:43.690Z,3056.00
2018-06-23T12:17:43.552Z,3100.00
2018-06-23T12:18:43.594Z,2964.00
2018-06-23T12:19:43.589Z,3132.00
2018-06-23T12:20:43.602Z,2856.00
2018-06-23T12:21:43.617Z,3136.00
2018-06-23T12:22:43.645Z,3244.00
2018-06-23T12:23:43.601Z,3256.00
2018-06-23T12:24:43.675Z,3228.00
2018-06-23T12:25:43.628Z,3136.00
2018-06-23T12:26:43.682Z,3140.00
2018-06-23T12:27:43.648Z,3044.00
2018-06-23T12:28:43.670Z,3044.00